sensor_id;sensor_type;location;lat;lon;timestamp;temperature;humidity
5086;DHT22;4715;51.660;7.082;2022-12-24T00:00:55;10.60;99.90
5086;DHT22;4715;51.660;7.082;2022-12-24T00:03:18;10.50;99.90
5086;DHT22;4715;51.660;7.082;2022-12-24T00:05:41;10.40;99.90
5086;DHT22;4715;51.660;7.082;2022-12-24T00:08:03;10.30;99.90
5086;DHT22;4715;51.660;7.082;2022-12-24T00:10:25;10.30;99.90
5086;DHT22;4715;51.660;7.082;2022-12-24T00:12:47;10.30;99.90
5086;DHT22;4715;51.660;7.082;2022-12-24T00:15:11;10.20;99.90
5086;DHT22;4715;51.660;7.082;2022-12-24T00:17:32;10.30;99.90
5086;DHT22;4715;51.660;7.082;2022-12-24T00:19:54;10.30;99.90
5086;DHT22;4715;51.660;7.082;2022-12-24T00:22:16;10.30;99.90
5086;DHT22;4715;51.660;7.082;2022-12-24T00:24:38;10.30;99.90
5086;DHT22;4715;51.660;7.082;2022-12-24T00:27:00;10.30;99.90
5086;DHT22;4715;51.660;7.082;2022-12-24T00:29:23;10.30;99.90
5086;DHT22;4715;51.660;7.082;2022-12-24T00:31:46;10.40;99.90
5086;DHT22;4715;51.660;7.082;2022-12-24T00:34:08;10.40;99.90
5086;DHT22;4715;51.660;7.082;2022-12-24T00:36:29;10.40;99.90
5086;DHT22;4715;51.660;7.082;2022-12-24T00:38:51;10.50;99.90
5086;DHT22;4715;51.660;7.082;2022-12-24T00:41:14;10.50;99.90
5086;DHT22;4715;51.660;7.082;2022-12-24T00:43:45;10.60;99.90
5086;DHT22;4715;51.660;7.082;2022-12-24T00:46:07;10.60;99.90
5086;DHT22;4715;51.660;7.082;2022-12-24T00:48:30;10.60;99.90
5086;DHT22;4715;51.660;7.082;2022-12-24T00:50:52;10.70;99.90
5086;DHT22;4715;51.660;7.082;2022-12-24T00:53:14;10.70;99.90
5086;DHT22;4715;51.660;7.082;2022-12-24T00:55:36;10.70;99.90
5086;DHT22;4715;51.660;7.082;2022-12-24T00:57:58;10.80;99.90
5086;DHT22;4715;51.660;7.082;2022-12-24T01:00:19;10.80;99.90
5086;DHT22;4715;51.660;7.082;2022-12-24T01:02:41;10.80;99.90
5086;DHT22;4715;51.660;7.082;2022-12-24T01:05:05;10.80;99.90
5086;DHT22;4715;51.660;7.082;2022-12-24T01:07:31;10.80;99.90
5086;DHT22;4715;51.660;7.082;2022-12-24T01:09:53;10.80;99.90
5086;DHT22;4715;51.660;7.082;2022-12-24T01:12:15;10.80;99.90
5086;DHT22;4715;51.660;7.082;2022-12-24T01:14:37;10.80;99.90
5086;DHT22;4715;51.660;7.082;2022-12-24T01:16:59;10.80;99.90
5086;DHT22;4715;51.660;7.082;2022-12-24T01:19:21;10.80;99.90
5086;DHT22;4715;51.660;7.082;2022-12-24T01:21:44;10.80;99.90
5086;DHT22;4715;51.660;7.082;2022-12-24T01:24:06;10.80;99.90
5086;DHT22;4715;51.660;7.082;2022-12-24T01:26:27;10.80;99.90
5086;DHT22;4715;51.660;7.082;2022-12-24T01:28:49;10.80;99.90
5086;DHT22;4715;51.660;7.082;2022-12-24T01:31:13;10.70;99.90
5086;DHT22;4715;51.660;7.082;2022-12-24T01:33:34;10.70;99.90
5086;DHT22;4715;51.660;7.082;2022-12-24T01:35:56;10.70;99.90
5086;DHT22;4715;51.660;7.082;2022-12-24T01:38:19;10.70;99.90
5086;DHT22;4715;51.660;7.082;2022-12-24T01:40:41;10.70;99.90
5086;DHT22;4715;51.660;7.082;2022-12-24T01:43:21;10.70;99.90
5086;DHT22;4715;51.660;7.082;2022-12-24T01:45:47;10.70;99.90
5086;DHT22;4715;51.660;7.082;2022-12-24T01:48:19;10.70;99.90
5086;DHT22;4715;51.660;7.082;2022-12-24T01:50:42;10.70;99.90
5086;DHT22;4715;51.660;7.082;2022-12-24T01:53:05;10.70;99.90
5086;DHT22;4715;51.660;7.082;2022-12-24T01:55:31;10.70;99.90
5086;DHT22;4715;51.660;7.082;2022-12-24T01:57:55;10.70;99.90
5086;DHT22;4715;51.660;7.082;2022-12-24T02:00:18;10.70;99.90
5086;DHT22;4715;51.660;7.082;2022-12-24T02:02:43;10.70;99.90
5086;DHT22;4715;51.660;7.082;2022-12-24T02:05:08;10.60;99.90
5086;DHT22;4715;51.660;7.082;2022-12-24T02:07:31;10.60;99.90
5086;DHT22;4715;51.660;7.082;2022-12-24T02:09:58;10.60;99.90
5086;DHT22;4715;51.660;7.082;2022-12-24T02:12:22;10.60;99.90
5086;DHT22;4715;51.660;7.082;2022-12-24T02:14:44;10.60;99.90
5086;DHT22;4715;51.660;7.082;2022-12-24T02:17:12;10.60;99.90
5086;DHT22;4715;51.660;7.082;2022-12-24T02:20:07;10.60;99.90
5086;DHT22;4715;51.660;7.082;2022-12-24T02:22:45;10.60;99.90
5086;DHT22;4715;51.660;7.082;2022-12-24T02:25:24;10.50;99.90
5086;DHT22;4715;51.660;7.082;2022-12-24T02:27:54;10.50;99.90
5086;DHT22;4715;51.660;7.082;2022-12-24T02:30:19;10.50;99.90
5086;DHT22;4715;51.660;7.082;2022-12-24T02:33:10;10.50;99.90
5086;DHT22;4715;51.660;7.082;2022-12-24T02:35:37;10.50;99.90
5086;DHT22;4715;51.660;7.082;2022-12-24T02:38:05;10.40;99.90
5086;DHT22;4715;51.660;7.082;2022-12-24T02:40:33;10.40;99.90
5086;DHT22;4715;51.660;7.082;2022-12-24T02:42:59;10.40;99.90
5086;DHT22;4715;51.660;7.082;2022-12-24T02:45:27;10.40;99.90
5086;DHT22;4715;51.660;7.082;2022-12-24T02:47:50;10.40;99.90
5086;DHT22;4715;51.660;7.082;2022-12-24T02:50:14;10.40;99.90
5086;DHT22;4715;51.660;7.082;2022-12-24T02:52:37;10.40;99.90
5086;DHT22;4715;51.660;7.082;2022-12-24T02:55:02;10.40;99.90
5086;DHT22;4715;51.660;7.082;2022-12-24T02:57:31;10.40;99.90
5086;DHT22;4715;51.660;7.082;2022-12-24T03:00:02;10.40;99.90
5086;DHT22;4715;51.660;7.082;2022-12-24T03:02:35;10.40;99.90
5086;DHT22;4715;51.660;7.082;2022-12-24T03:05:08;10.40;99.90
5086;DHT22;4715;51.660;7.082;2022-12-24T03:07:36;10.30;99.90
5086;DHT22;4715;51.660;7.082;2022-12-24T03:10:06;10.30;99.90
5086;DHT22;4715;51.660;7.082;2022-12-24T03:12:36;10.30;99.90
5086;DHT22;4715;51.660;7.082;2022-12-24T03:15:00;10.30;99.90
5086;DHT22;4715;51.660;7.082;2022-12-24T03:17:22;10.30;99.90
5086;DHT22;4715;51.660;7.082;2022-12-24T03:19:46;10.30;99.90
5086;DHT22;4715;51.660;7.082;2022-12-24T03:22:09;10.30;99.90
5086;DHT22;4715;51.660;7.082;2022-12-24T03:24:32;10.30;99.90
5086;DHT22;4715;51.660;7.082;2022-12-24T03:26:54;10.20;99.90
5086;DHT22;4715;51.660;7.082;2022-12-24T03:29:17;10.30;99.90
5086;DHT22;4715;51.660;7.082;2022-12-24T03:31:41;10.20;99.90
5086;DHT22;4715;51.660;7.082;2022-12-24T03:34:03;10.20;99.90
5086;DHT22;4715;51.660;7.082;2022-12-24T03:36:26;10.20;99.90
5086;DHT22;4715;51.660;7.082;2022-12-24T03:38:50;10.20;99.90
5086;DHT22;4715;51.660;7.082;2022-12-24T03:41:11;10.20;99.90
5086;DHT22;4715;51.660;7.082;2022-12-24T03:43:33;10.20;99.90
5086;DHT22;4715;51.660;7.082;2022-12-24T03:45:55;10.20;99.90
5086;DHT22;4715;51.660;7.082;2022-12-24T03:48:17;10.20;99.90
5086;DHT22;4715;51.660;7.082;2022-12-24T03:50:39;10.20;99.90
5086;DHT22;4715;51.660;7.082;2022-12-24T03:53:02;10.10;99.90
5086;DHT22;4715;51.660;7.082;2022-12-24T03:55:24;10.10;99.90
5086;DHT22;4715;51.660;7.082;2022-12-24T03:57:46;10.10;99.90
5086;DHT22;4715;51.660;7.082;2022-12-24T04:00:08;10.20;99.90
5086;DHT22;4715;51.660;7.082;2022-12-24T04:02:31;10.10;99.90
5086;DHT22;4715;51.660;7.082;2022-12-24T04:04:53;10.10;99.90
5086;DHT22;4715;51.660;7.082;2022-12-24T04:07:15;10.20;99.90
5086;DHT22;4715;51.660;7.082;2022-12-24T04:09:38;10.20;99.90
5086;DHT22;4715;51.660;7.082;2022-12-24T04:12:00;10.20;99.90
5086;DHT22;4715;51.660;7.082;2022-12-24T04:14:22;10.20;99.90
5086;DHT22;4715;51.660;7.082;2022-12-24T04:16:44;10.20;99.90
5086;DHT22;4715;51.660;7.082;2022-12-24T04:19:06;10.20;99.90
5086;DHT22;4715;51.660;7.082;2022-12-24T04:21:27;10.20;99.90
5086;DHT22;4715;51.660;7.082;2022-12-24T04:23:49;10.20;99.90
5086;DHT22;4715;51.660;7.082;2022-12-24T04:26:13;10.30;99.90
5086;DHT22;4715;51.660;7.082;2022-12-24T04:28:35;10.30;99.90
5086;DHT22;4715;51.660;7.082;2022-12-24T04:30:58;10.30;99.90
5086;DHT22;4715;51.660;7.082;2022-12-24T04:33:20;10.30;99.90
5086;DHT22;4715;51.660;7.082;2022-12-24T04:35:42;10.30;99.90
5086;DHT22;4715;51.660;7.082;2022-12-24T04:38:04;10.30;99.90
5086;DHT22;4715;51.660;7.082;2022-12-24T04:40:26;10.30;99.90
5086;DHT22;4715;51.660;7.082;2022-12-24T04:42:49;10.30;99.90
5086;DHT22;4715;51.660;7.082;2022-12-24T04:45:11;10.30;99.90
5086;DHT22;4715;51.660;7.082;2022-12-24T04:47:32;10.30;99.90
5086;DHT22;4715;51.660;7.082;2022-12-24T04:49:54;10.40;99.90
5086;DHT22;4715;51.660;7.082;2022-12-24T04:52:16;10.40;99.90
5086;DHT22;4715;51.660;7.082;2022-12-24T04:54:38;10.40;99.90
5086;DHT22;4715;51.660;7.082;2022-12-24T04:57:00;10.40;99.90
5086;DHT22;4715;51.660;7.082;2022-12-24T04:59:23;10.40;99.90
5086;DHT22;4715;51.660;7.082;2022-12-24T05:01:45;10.40;99.90
5086;DHT22;4715;51.660;7.082;2022-12-24T05:04:07;10.40;99.90
5086;DHT22;4715;51.660;7.082;2022-12-24T05:06:31;10.40;99.90
5086;DHT22;4715;51.660;7.082;2022-12-24T05:08:53;10.40;99.90
5086;DHT22;4715;51.660;7.082;2022-12-24T05:11:16;10.40;99.90
5086;DHT22;4715;51.660;7.082;2022-12-24T05:13:38;10.40;99.90
5086;DHT22;4715;51.660;7.082;2022-12-24T05:16:01;10.40;99.90
5086;DHT22;4715;51.660;7.082;2022-12-24T05:18:23;10.40;99.90
5086;DHT22;4715;51.660;7.082;2022-12-24T05:20:45;10.40;99.90
5086;DHT22;4715;51.660;7.082;2022-12-24T05:23:09;10.40;99.90
5086;DHT22;4715;51.660;7.082;2022-12-24T05:25:53;10.40;99.90
5086;DHT22;4715;51.660;7.082;2022-12-24T05:28:32;10.40;99.90
5086;DHT22;4715;51.660;7.082;2022-12-24T05:30:54;10.40;99.90
5086;DHT22;4715;51.660;7.082;2022-12-24T05:33:20;10.40;99.90
5086;DHT22;4715;51.660;7.082;2022-12-24T05:35:41;10.40;99.90
5086;DHT22;4715;51.660;7.082;2022-12-24T05:38:03;10.40;99.90
5086;DHT22;4715;51.660;7.082;2022-12-24T05:40:25;10.40;99.90
5086;DHT22;4715;51.660;7.082;2022-12-24T05:42:47;10.40;99.90
5086;DHT22;4715;51.660;7.082;2022-12-24T05:45:10;10.50;99.90
5086;DHT22;4715;51.660;7.082;2022-12-24T05:47:32;10.50;99.90
5086;DHT22;4715;51.660;7.082;2022-12-24T05:49:55;10.50;99.90
5086;DHT22;4715;51.660;7.082;2022-12-24T05:52:17;10.50;99.90
5086;DHT22;4715;51.660;7.082;2022-12-24T05:54:39;10.50;99.90
5086;DHT22;4715;51.660;7.082;2022-12-24T05:57:00;10.50;99.90
5086;DHT22;4715;51.660;7.082;2022-12-24T05:59:24;10.50;99.90
5086;DHT22;4715;51.660;7.082;2022-12-24T06:01:45;10.50;99.90
5086;DHT22;4715;51.660;7.082;2022-12-24T06:04:07;10.50;99.90
5086;DHT22;4715;51.660;7.082;2022-12-24T06:06:30;10.50;99.90
5086;DHT22;4715;51.660;7.082;2022-12-24T06:08:53;10.50;99.90
5086;DHT22;4715;51.660;7.082;2022-12-24T06:11:17;10.50;99.90
5086;DHT22;4715;51.660;7.082;2022-12-24T06:13:40;10.50;99.90
5086;DHT22;4715;51.660;7.082;2022-12-24T06:16:04;10.50;99.90
5086;DHT22;4715;51.660;7.082;2022-12-24T06:18:28;10.50;99.90
5086;DHT22;4715;51.660;7.082;2022-12-24T06:20:50;10.40;99.90
5086;DHT22;4715;51.660;7.082;2022-12-24T06:23:13;10.40;99.90
5086;DHT22;4715;51.660;7.082;2022-12-24T06:25:35;10.40;99.90
5086;DHT22;4715;51.660;7.082;2022-12-24T06:27:57;10.40;99.90
5086;DHT22;4715;51.660;7.082;2022-12-24T06:30:19;10.40;99.90
5086;DHT22;4715;51.660;7.082;2022-12-24T06:32:41;10.40;99.90
5086;DHT22;4715;51.660;7.082;2022-12-24T06:35:03;10.50;99.90
5086;DHT22;4715;51.660;7.082;2022-12-24T06:37:25;10.50;99.90
5086;DHT22;4715;51.660;7.082;2022-12-24T06:39:48;10.50;99.90
5086;DHT22;4715;51.660;7.082;2022-12-24T06:42:10;10.50;99.90
5086;DHT22;4715;51.660;7.082;2022-12-24T06:44:32;10.50;99.90
5086;DHT22;4715;51.660;7.082;2022-12-24T06:46:53;10.50;99.90
5086;DHT22;4715;51.660;7.082;2022-12-24T06:49:16;10.50;99.90
5086;DHT22;4715;51.660;7.082;2022-12-24T06:51:37;10.50;99.90
5086;DHT22;4715;51.660;7.082;2022-12-24T06:53:59;10.50;99.90
5086;DHT22;4715;51.660;7.082;2022-12-24T06:56:23;10.50;99.90
5086;DHT22;4715;51.660;7.082;2022-12-24T06:58:45;10.50;99.90
5086;DHT22;4715;51.660;7.082;2022-12-24T07:01:08;10.50;99.90
5086;DHT22;4715;51.660;7.082;2022-12-24T07:03:31;10.50;99.90
5086;DHT22;4715;51.660;7.082;2022-12-24T07:05:53;10.50;99.90
5086;DHT22;4715;51.660;7.082;2022-12-24T07:08:15;10.50;99.90
5086;DHT22;4715;51.660;7.082;2022-12-24T07:10:38;10.50;99.90
5086;DHT22;4715;51.660;7.082;2022-12-24T07:13:01;10.50;99.90
5086;DHT22;4715;51.660;7.082;2022-12-24T07:15:23;10.50;99.90
5086;DHT22;4715;51.660;7.082;2022-12-24T07:17:45;10.50;99.90
5086;DHT22;4715;51.660;7.082;2022-12-24T07:20:09;10.50;99.90
5086;DHT22;4715;51.660;7.082;2022-12-24T07:22:32;10.50;99.90
5086;DHT22;4715;51.660;7.082;2022-12-24T07:24:54;10.50;99.90
5086;DHT22;4715;51.660;7.082;2022-12-24T07:27:16;10.50;99.90
5086;DHT22;4715;51.660;7.082;2022-12-24T07:29:39;10.50;99.90
5086;DHT22;4715;51.660;7.082;2022-12-24T07:32:01;10.50;99.90
5086;DHT22;4715;51.660;7.082;2022-12-24T07:34:23;10.60;99.90
5086;DHT22;4715;51.660;7.082;2022-12-24T07:36:45;10.50;99.90
5086;DHT22;4715;51.660;7.082;2022-12-24T07:39:07;10.50;99.90
5086;DHT22;4715;51.660;7.082;2022-12-24T07:41:30;10.50;99.90
5086;DHT22;4715;51.660;7.082;2022-12-24T07:43:51;10.50;99.90
5086;DHT22;4715;51.660;7.082;2022-12-24T07:46:14;10.50;99.90
5086;DHT22;4715;51.660;7.082;2022-12-24T07:48:36;10.60;99.90
5086;DHT22;4715;51.660;7.082;2022-12-24T07:50:59;10.50;99.90
5086;DHT22;4715;51.660;7.082;2022-12-24T07:53:21;10.50;99.90
5086;DHT22;4715;51.660;7.082;2022-12-24T07:55:43;10.50;99.90
5086;DHT22;4715;51.660;7.082;2022-12-24T07:58:05;10.60;99.90
5086;DHT22;4715;51.660;7.082;2022-12-24T08:00:27;10.50;99.90
5086;DHT22;4715;51.660;7.082;2022-12-24T08:02:50;10.50;99.90
5086;DHT22;4715;51.660;7.082;2022-12-24T08:05:11;10.60;99.90
5086;DHT22;4715;51.660;7.082;2022-12-24T08:07:33;10.50;99.90
5086;DHT22;4715;51.660;7.082;2022-12-24T08:09:55;10.60;99.90
5086;DHT22;4715;51.660;7.082;2022-12-24T08:12:17;10.60;99.90
5086;DHT22;4715;51.660;7.082;2022-12-24T08:14:39;10.60;99.90
5086;DHT22;4715;51.660;7.082;2022-12-24T08:17:01;10.60;99.90
5086;DHT22;4715;51.660;7.082;2022-12-24T08:19:24;10.60;99.90
5086;DHT22;4715;51.660;7.082;2022-12-24T08:21:46;10.60;99.90
5086;DHT22;4715;51.660;7.082;2022-12-24T08:24:07;10.60;99.90
5086;DHT22;4715;51.660;7.082;2022-12-24T08:26:29;10.60;99.90
5086;DHT22;4715;51.660;7.082;2022-12-24T08:28:51;10.60;99.90
5086;DHT22;4715;51.660;7.082;2022-12-24T08:31:13;10.60;99.90
5086;DHT22;4715;51.660;7.082;2022-12-24T08:33:35;10.60;99.90
5086;DHT22;4715;51.660;7.082;2022-12-24T08:36:00;10.70;99.90
5086;DHT22;4715;51.660;7.082;2022-12-24T08:38:22;10.70;99.90
5086;DHT22;4715;51.660;7.082;2022-12-24T08:40:45;10.70;99.90
5086;DHT22;4715;51.660;7.082;2022-12-24T08:43:09;10.70;99.90
5086;DHT22;4715;51.660;7.082;2022-12-24T08:45:31;10.60;99.90
5086;DHT22;4715;51.660;7.082;2022-12-24T08:47:56;10.70;99.90
5086;DHT22;4715;51.660;7.082;2022-12-24T08:50:19;10.70;99.90
5086;DHT22;4715;51.660;7.082;2022-12-24T08:52:42;10.70;99.90
5086;DHT22;4715;51.660;7.082;2022-12-24T08:55:05;10.70;99.90
5086;DHT22;4715;51.660;7.082;2022-12-24T08:57:27;10.70;99.90
5086;DHT22;4715;51.660;7.082;2022-12-24T08:59:49;10.70;99.90
5086;DHT22;4715;51.660;7.082;2022-12-24T09:02:11;10.70;99.90
5086;DHT22;4715;51.660;7.082;2022-12-24T09:04:33;10.70;99.90
5086;DHT22;4715;51.660;7.082;2022-12-24T09:06:55;10.70;99.90
5086;DHT22;4715;51.660;7.082;2022-12-24T09:09:18;10.70;99.90
5086;DHT22;4715;51.660;7.082;2022-12-24T09:11:39;10.70;99.90
5086;DHT22;4715;51.660;7.082;2022-12-24T09:14:01;10.70;99.90
5086;DHT22;4715;51.660;7.082;2022-12-24T09:16:23;10.80;99.90
5086;DHT22;4715;51.660;7.082;2022-12-24T09:18:45;10.80;99.90
5086;DHT22;4715;51.660;7.082;2022-12-24T09:21:09;10.80;99.90
5086;DHT22;4715;51.660;7.082;2022-12-24T09:23:34;10.80;99.90
5086;DHT22;4715;51.660;7.082;2022-12-24T09:26:04;10.80;99.90
5086;DHT22;4715;51.660;7.082;2022-12-24T09:28:25;10.80;99.90
5086;DHT22;4715;51.660;7.082;2022-12-24T09:30:55;10.80;99.90
5086;DHT22;4715;51.660;7.082;2022-12-24T09:33:17;10.80;99.90
5086;DHT22;4715;51.660;7.082;2022-12-24T09:35:40;10.80;99.90
5086;DHT22;4715;51.660;7.082;2022-12-24T09:38:02;10.80;99.90
5086;DHT22;4715;51.660;7.082;2022-12-24T09:40:30;10.80;99.90
5086;DHT22;4715;51.660;7.082;2022-12-24T09:42:55;10.80;99.90
5086;DHT22;4715;51.660;7.082;2022-12-24T09:45:21;10.80;99.90
5086;DHT22;4715;51.660;7.082;2022-12-24T09:47:46;10.80;99.90
5086;DHT22;4715;51.660;7.082;2022-12-24T09:50:27;10.80;99.90
5086;DHT22;4715;51.660;7.082;2022-12-24T09:52:52;10.90;99.90
5086;DHT22;4715;51.660;7.082;2022-12-24T09:55:20;10.80;99.90
5086;DHT22;4715;51.660;7.082;2022-12-24T09:57:45;10.80;99.90
5086;DHT22;4715;51.660;7.082;2022-12-24T10:00:18;10.80;99.90
5086;DHT22;4715;51.660;7.082;2022-12-24T10:02:41;10.90;99.90
5086;DHT22;4715;51.660;7.082;2022-12-24T10:05:04;10.80;99.90
5086;DHT22;4715;51.660;7.082;2022-12-24T10:07:37;10.80;99.90
5086;DHT22;4715;51.660;7.082;2022-12-24T10:10:13;10.80;99.90
5086;DHT22;4715;51.660;7.082;2022-12-24T10:12:43;10.90;99.90
5086;DHT22;4715;51.660;7.082;2022-12-24T10:15:17;10.90;99.90
5086;DHT22;4715;51.660;7.082;2022-12-24T10:17:50;10.90;99.90
5086;DHT22;4715;51.660;7.082;2022-12-24T10:20:31;10.90;99.90
5086;DHT22;4715;51.660;7.082;2022-12-24T10:22:59;11.00;99.90
5086;DHT22;4715;51.660;7.082;2022-12-24T10:25:28;11.00;99.90
5086;DHT22;4715;51.660;7.082;2022-12-24T10:27:52;11.00;99.90
5086;DHT22;4715;51.660;7.082;2022-12-24T10:30:18;11.00;99.90
5086;DHT22;4715;51.660;7.082;2022-12-24T10:32:41;11.00;99.90
5086;DHT22;4715;51.660;7.082;2022-12-24T10:35:10;11.00;99.90
5086;DHT22;4715;51.660;7.082;2022-12-24T10:37:38;11.10;99.90
5086;DHT22;4715;51.660;7.082;2022-12-24T10:40:01;11.10;99.90
5086;DHT22;4715;51.660;7.082;2022-12-24T10:42:29;11.20;99.90
5086;DHT22;4715;51.660;7.082;2022-12-24T10:44:56;11.20;99.90
5086;DHT22;4715;51.660;7.082;2022-12-24T10:47:22;11.20;99.90
5086;DHT22;4715;51.660;7.082;2022-12-24T10:49:47;11.30;99.90
5086;DHT22;4715;51.660;7.082;2022-12-24T10:52:11;11.30;99.90
5086;DHT22;4715;51.660;7.082;2022-12-24T10:54:34;11.30;99.90
5086;DHT22;4715;51.660;7.082;2022-12-24T10:57:00;11.20;99.90
5086;DHT22;4715;51.660;7.082;2022-12-24T10:59:25;11.20;99.90
5086;DHT22;4715;51.660;7.082;2022-12-24T11:01:49;11.20;99.90
5086;DHT22;4715;51.660;7.082;2022-12-24T11:04:17;11.30;99.90
5086;DHT22;4715;51.660;7.082;2022-12-24T11:06:51;11.20;99.90
5086;DHT22;4715;51.660;7.082;2022-12-24T11:09:20;11.30;99.90
5086;DHT22;4715;51.660;7.082;2022-12-24T11:11:42;11.20;99.90
5086;DHT22;4715;51.660;7.082;2022-12-24T11:14:13;11.20;99.90
5086;DHT22;4715;51.660;7.082;2022-12-24T11:16:36;11.20;99.90
5086;DHT22;4715;51.660;7.082;2022-12-24T11:19:01;11.20;99.90
5086;DHT22;4715;51.660;7.082;2022-12-24T11:21:27;11.30;99.90
5086;DHT22;4715;51.660;7.082;2022-12-24T11:23:51;11.30;99.90
5086;DHT22;4715;51.660;7.082;2022-12-24T11:26:20;11.20;99.90
5086;DHT22;4715;51.660;7.082;2022-12-24T11:28:42;11.30;99.90
5086;DHT22;4715;51.660;7.082;2022-12-24T11:31:07;11.30;99.90
5086;DHT22;4715;51.660;7.082;2022-12-24T11:33:45;11.30;99.90
5086;DHT22;4715;51.660;7.082;2022-12-24T11:36:12;11.30;99.90
5086;DHT22;4715;51.660;7.082;2022-12-24T11:38:35;11.30;99.90
5086;DHT22;4715;51.660;7.082;2022-12-24T11:41:03;11.30;99.90
5086;DHT22;4715;51.660;7.082;2022-12-24T11:43:32;11.20;99.90
5086;DHT22;4715;51.660;7.082;2022-12-24T11:46:17;11.20;99.90
5086;DHT22;4715;51.660;7.082;2022-12-24T11:48:40;11.30;99.90
5086;DHT22;4715;51.660;7.082;2022-12-24T11:51:03;11.30;99.90
5086;DHT22;4715;51.660;7.082;2022-12-24T11:53:31;11.30;99.90
5086;DHT22;4715;51.660;7.082;2022-12-24T11:55:57;11.40;99.90
5086;DHT22;4715;51.660;7.082;2022-12-24T11:58:26;11.40;99.90
5086;DHT22;4715;51.660;7.082;2022-12-24T12:00:50;11.40;99.90
5086;DHT22;4715;51.660;7.082;2022-12-24T12:03:27;11.40;99.90
5086;DHT22;4715;51.660;7.082;2022-12-24T12:05:50;11.50;99.90
5086;DHT22;4715;51.660;7.082;2022-12-24T12:08:17;11.50;99.90
5086;DHT22;4715;51.660;7.082;2022-12-24T12:10:40;11.60;99.90
5086;DHT22;4715;51.660;7.082;2022-12-24T12:13:09;11.60;99.90
5086;DHT22;4715;51.660;7.082;2022-12-24T12:15:34;11.70;99.90
5086;DHT22;4715;51.660;7.082;2022-12-24T12:18:02;11.70;99.90
5086;DHT22;4715;51.660;7.082;2022-12-24T12:20:30;11.70;99.90
5086;DHT22;4715;51.660;7.082;2022-12-24T12:22:58;11.60;99.90
5086;DHT22;4715;51.660;7.082;2022-12-24T12:25:24;11.60;99.90
5086;DHT22;4715;51.660;7.082;2022-12-24T12:27:52;11.60;99.90
5086;DHT22;4715;51.660;7.082;2022-12-24T12:30:19;11.50;99.90
5086;DHT22;4715;51.660;7.082;2022-12-24T12:32:47;11.50;99.90
5086;DHT22;4715;51.660;7.082;2022-12-24T12:35:20;11.50;99.90
5086;DHT22;4715;51.660;7.082;2022-12-24T12:37:49;11.50;99.90
5086;DHT22;4715;51.660;7.082;2022-12-24T12:40:14;11.40;99.90
5086;DHT22;4715;51.660;7.082;2022-12-24T12:42:37;11.40;99.90
5086;DHT22;4715;51.660;7.082;2022-12-24T12:45:29;11.40;99.90
5086;DHT22;4715;51.660;7.082;2022-12-24T12:48:10;11.50;99.90
5086;DHT22;4715;51.660;7.082;2022-12-24T12:50:39;11.60;99.90
5086;DHT22;4715;51.660;7.082;2022-12-24T12:53:21;11.60;99.90
5086;DHT22;4715;51.660;7.082;2022-12-24T12:55:51;11.50;99.90
5086;DHT22;4715;51.660;7.082;2022-12-24T12:58:22;11.50;99.90
5086;DHT22;4715;51.660;7.082;2022-12-24T13:00:50;11.40;99.90
5086;DHT22;4715;51.660;7.082;2022-12-24T13:03:42;11.50;99.90
5086;DHT22;4715;51.660;7.082;2022-12-24T13:09:26;11.50;99.90
5086;DHT22;4715;51.660;7.082;2022-12-24T13:12:13;11.50;99.90
5086;DHT22;4715;51.660;7.082;2022-12-24T13:14:51;11.50;99.90
5086;DHT22;4715;51.660;7.082;2022-12-24T13:17:41;11.50;99.90
5086;DHT22;4715;51.660;7.082;2022-12-24T13:20:18;11.50;99.90
5086;DHT22;4715;51.660;7.082;2022-12-24T13:22:47;11.50;99.90
5086;DHT22;4715;51.660;7.082;2022-12-24T13:25:20;11.50;99.90
5086;DHT22;4715;51.660;7.082;2022-12-24T13:27:43;11.50;99.90
5086;DHT22;4715;51.660;7.082;2022-12-24T13:30:30;11.50;99.90
5086;DHT22;4715;51.660;7.082;2022-12-24T13:32:54;11.50;99.90
5086;DHT22;4715;51.660;7.082;2022-12-24T13:35:29;11.50;99.90
5086;DHT22;4715;51.660;7.082;2022-12-24T13:37:51;11.50;99.90
5086;DHT22;4715;51.660;7.082;2022-12-24T13:40:16;11.50;99.90
5086;DHT22;4715;51.660;7.082;2022-12-24T13:42:48;11.50;99.90
5086;DHT22;4715;51.660;7.082;2022-12-24T13:45:44;11.50;99.90
5086;DHT22;4715;51.660;7.082;2022-12-24T13:48:26;11.50;99.90
5086;DHT22;4715;51.660;7.082;2022-12-24T13:50:50;11.50;99.90
5086;DHT22;4715;51.660;7.082;2022-12-24T13:53:21;11.50;99.90
5086;DHT22;4715;51.660;7.082;2022-12-24T13:55:49;11.50;99.90
5086;DHT22;4715;51.660;7.082;2022-12-24T13:58:17;11.50;99.90
5086;DHT22;4715;51.660;7.082;2022-12-24T14:00:42;11.50;99.90
5086;DHT22;4715;51.660;7.082;2022-12-24T14:03:21;11.50;99.90
5086;DHT22;4715;51.660;7.082;2022-12-24T14:05:48;11.60;99.90
5086;DHT22;4715;51.660;7.082;2022-12-24T14:08:14;11.50;99.90
5086;DHT22;4715;51.660;7.082;2022-12-24T14:10:39;11.50;99.90
5086;DHT22;4715;51.660;7.082;2022-12-24T14:13:01;11.50;99.90
5086;DHT22;4715;51.660;7.082;2022-12-24T14:15:56;11.50;99.90
5086;DHT22;4715;51.660;7.082;2022-12-24T14:18:24;11.50;99.90
5086;DHT22;4715;51.660;7.082;2022-12-24T14:20:48;11.50;99.90
5086;DHT22;4715;51.660;7.082;2022-12-24T14:23:22;11.50;99.90
5086;DHT22;4715;51.660;7.082;2022-12-24T14:25:49;11.50;99.90
5086;DHT22;4715;51.660;7.082;2022-12-24T14:28:14;11.50;99.90
5086;DHT22;4715;51.660;7.082;2022-12-24T14:30:39;11.40;99.90
5086;DHT22;4715;51.660;7.082;2022-12-24T14:33:01;11.40;99.90
5086;DHT22;4715;51.660;7.082;2022-12-24T14:35:28;11.40;99.90
5086;DHT22;4715;51.660;7.082;2022-12-24T14:37:55;11.30;99.90
5086;DHT22;4715;51.660;7.082;2022-12-24T14:40:21;11.30;99.90
5086;DHT22;4715;51.660;7.082;2022-12-24T14:42:53;11.30;99.90
5086;DHT22;4715;51.660;7.082;2022-12-24T14:45:27;11.30;99.90
5086;DHT22;4715;51.660;7.082;2022-12-24T14:47:56;11.20;99.90
5086;DHT22;4715;51.660;7.082;2022-12-24T14:50:39;11.20;99.90
5086;DHT22;4715;51.660;7.082;2022-12-24T14:53:19;11.20;99.90
5086;DHT22;4715;51.660;7.082;2022-12-24T14:55:44;11.10;99.90
5086;DHT22;4715;51.660;7.082;2022-12-24T14:58:25;11.10;99.90
5086;DHT22;4715;51.660;7.082;2022-12-24T15:00:48;11.00;99.90
5086;DHT22;4715;51.660;7.082;2022-12-24T15:03:12;11.00;99.90
5086;DHT22;4715;51.660;7.082;2022-12-24T15:05:36;10.90;99.90
5086;DHT22;4715;51.660;7.082;2022-12-24T15:08:00;10.90;99.90
5086;DHT22;4715;51.660;7.082;2022-12-24T15:10:27;10.80;99.90
5086;DHT22;4715;51.660;7.082;2022-12-24T15:12:49;10.80;99.90
5086;DHT22;4715;51.660;7.082;2022-12-24T15:15:14;10.70;99.90
5086;DHT22;4715;51.660;7.082;2022-12-24T15:17:36;10.70;99.90
5086;DHT22;4715;51.660;7.082;2022-12-24T15:19:58;10.60;99.90
5086;DHT22;4715;51.660;7.082;2022-12-24T15:22:25;10.60;99.90
5086;DHT22;4715;51.660;7.082;2022-12-24T15:24:48;10.60;99.90
5086;DHT22;4715;51.660;7.082;2022-12-24T15:27:14;10.50;99.90
5086;DHT22;4715;51.660;7.082;2022-12-24T15:29:42;10.50;99.90
5086;DHT22;4715;51.660;7.082;2022-12-24T15:32:11;10.40;99.90
5086;DHT22;4715;51.660;7.082;2022-12-24T15:34:35;10.40;99.90
5086;DHT22;4715;51.660;7.082;2022-12-24T15:37:02;10.30;99.90
5086;DHT22;4715;51.660;7.082;2022-12-24T15:39:27;10.30;99.90
5086;DHT22;4715;51.660;7.082;2022-12-24T15:41:50;10.30;99.90
5086;DHT22;4715;51.660;7.082;2022-12-24T15:44:35;10.20;99.90
5086;DHT22;4715;51.660;7.082;2022-12-24T15:46:58;10.20;99.90
5086;DHT22;4715;51.660;7.082;2022-12-24T15:49:22;10.20;99.90
5086;DHT22;4715;51.660;7.082;2022-12-24T15:51:44;10.10;99.90
5086;DHT22;4715;51.660;7.082;2022-12-24T15:54:10;10.10;99.90